Terminal Aerodrome Forecast
Issued by NWS

Home | Current Version | Previous Version | Graphics & Text | Print | Product List | Glossary On
Versions: 1 2 3 4 5 6 7 8 9 10 11 12 13 14 15 16 17 18 19
969
FTUS43 KFGF 081730
TAFBJI
TAF
KBJI 081730Z 0818/0918 32016G24KT P6SM -SN OVC020
      TEMPO 0818/0822 3SM -SN OVC012
     FM082200 32017KT P6SM BKN025
     FM090200 31014KT P6SM BKN030
     FM090700 32012KT P6SM SCT050=

USA.gov is the U.S. government's official web portal to all federal, state and local government web resources and services.